EKSO weather

Svínoy Heliport
Svínoy, Faroe Islands

Public forecast

Using degrees Celsius for public forecast. Weather courtesy of forecast.io.

Closest aviation weather report (METAR) to Svínoy Heliport

Closest report is Vagar Airport, 29.2 nm (54.0 km) WSW. Retrieved 2020/08/05 07:50 UTC (15 minutes ago):

EKVG 050750Z AUTO 13008KT 2900 BR OVC004/// 12/12 Q0992

Closest aviation forecast (TAF) to Svínoy Heliport

Forecast is more than 12 hours old.

Closest forecast is Vagar Airport, 29.2 nm (54.0 km) WSW. Retrieved 2017/08/20 00:36 UTC (3 years ago):

TAF TAF EKVG 200034Z 2000/2012 33018KT 9000 FEW007 TEMPO 2003/2006 34025G35KT 4000 DZRA BKN006